Viking Sun — LAYT7 — position and weather

sailwx.info

Track history (hours):
 
Tides and Currents Weather Stations Pressure Air Temp Water Temp Dewpoint Dewpoint Depression Visibility Wind Speed Wind Dir Waves Ship Positions

Viking Sun

Last reported at 2020-Jul-05 21:58 UTC. Time now 2020-Jul-05 23:19 UTC.
Position N 53°25' W 003°00'.

Length 228 m; draft 7 m.

Type: Passenger vessel. MMSI: 257179000.

Date/timePositionNaut miles runAvg speedWind from/ knotsBaromVisibWave heightAir tempDewpointWater temp
2020-Jul-05 21:58N 53°25' W 003°00'0 0.0
2020-Jul-05 19:58N 53°25' W 003°00'0 0.0
2020-Jul-05 15:58N 53°25' W 003°00'0 0.0
2020-Jul-05 15:28N 53°25' W 003°00'0 0.0
2020-Jul-05 12:28N 53°25' W 003°00'0 0.0
2020-Jul-05 10:28N 53°25' W 003°00'0 0.0
2020-Jul-05 05:28N 53°25' W 003°00'0 0.0
2020-Jul-05 03:58N 53°25' W 003°00'0 0.0
2020-Jul-05 02:58N 53°25' W 003°00'0 0.0
2020-Jul-05 01:58N 53°25' W 003°00'0 0.0
2020-Jul-04 22:28N 53°25' W 003°00'1 0.2
2020-Jul-04 20:01N 53°25' W 003°01'816.6
2020-Jul-04 19:30N 53°32' W 003°09'1817.7
2020-Jul-04 18:30N 53°31' W 003°38'10116.8
2020-Jul-04 12:30N 54°44' W 005°37'4 3.4
2020-Jul-04 11:25N 54°41' W 005°42'0 0.0
2020-Jul-04 02:59N 54°41' W 005°42'0 0.0
2020-Jul-04 01:55N 54°41' W 005°42'0 0.0
2020-Jul-03 21:29N 54°41' W 005°42'0 0.0
2020-Jul-03 20:59N 54°41' W 005°42'0 0.0
2020-Jul-03 17:59N 54°41' W 005°42'0 0.0
2020-Jul-03 16:29N 54°41' W 005°42'0 0.2
2020-Jul-03 15:59N 54°41' W 005°42'0 0.0
2020-Jul-03 15:28N 54°41' W 005°42'0 0.1
2020-Jul-03 14:29N 54°41' W 005°42'0 0.1
2020-Jul-03 13:59N 54°41' W 005°42'0 0.0
2020-Jul-03 13:29N 54°41' W 005°42'0 0.0
2020-Jul-03 10:26N 54°41' W 005°42'0 0.1
2020-Jul-03 09:59N 54°41' W 005°42'0 0.0
2020-Jul-03 09:29N 54°41' W 005°42'0 0.0
2020-Jul-03 08:58N 54°41' W 005°42'0 0.0
2020-Jul-03 08:29N 54°41' W 005°42'0 0.2
2020-Jul-03 06:30N 54°41' W 005°41'0 0.0
2020-Jul-03 03:57N 54°41' W 005°41'0 0.0
2020-Jul-03 03:00N 54°41' W 005°41'0 0.0
2020-Jul-03 02:30N 54°41' W 005°41'0 0.0
2020-Jul-02 20:27N 54°41' W 005°41'0 0.0
2020-Jul-02 19:30N 54°41' W 005°41'0 0.0
2020-Jul-02 18:30N 54°41' W 005°41'0 0.0
2020-Jul-02 16:00N 54°41' W 005°41'1 0.9
2020-Jul-02 14:30N 54°42' W 005°41'24 7.8
2020-Jul-02 11:30N 54°27' W 005°09'5 9.2
2020-Jul-02 10:55N 54°22' W 005°09'4 8.8
2020-Jul-02 10:30N 54°18' W 005°08'9 8.6
2020-Jul-02 09:30N 54°10' W 005°09'6 9.1
2020-Jul-02 08:53N 54°05' W 005°13'46 7.3
2020-Jul-02 02:30N 53°49' W 003°58'9 8.6
2020-Jul-02 01:30N 53°41' W 003°58'53 5.4
2020-Jul-01 15:41N 54°02' W 005°21'21 9.6
2020-Jul-01 13:29N 54°22' W 005°10'29 3.6
2020-Jul-01 05:18N 54°37' W 005°54'0 0.0
2020-Jul-01 04:00N 54°37' W 005°54'0 0.0
2020-Jul-01 02:30N 54°37' W 005°54'0 0.0
2020-Jul-01 00:00N 54°37' W 005°54'0 0.0
2020-Jun-30 21:30N 54°37' W 005°54'0 0.0
2020-Jun-30 18:30N 54°37' W 005°54'0 0.0
2020-Jun-30 18:00N 54°37' W 005°54'0 0.0
2020-Jun-30 17:30N 54°37' W 005°54'0 0.0
2020-Jun-30 16:30N 54°37' W 005°54'0 0.0
2020-Jun-30 15:30N 54°37' W 005°54'0 0.0
2020-Jun-30 14:30N 54°37' W 005°54'0 0.0
2020-Jun-30 13:30N 54°37' W 005°54'0 0.0
2020-Jun-30 12:00N 54°37' W 005°54'0 0.0
2020-Jun-30 07:30N 54°37' W 005°54'0 0.0
2020-Jun-30 06:30N 54°37' W 005°54'0 0.0
2020-Jun-30 03:30N 54°37' W 005°54'0 0.0
2020-Jun-30 02:30N 54°37' W 005°54'0 0.0
2020-Jun-30 00:30N 54°37' W 005°54'0 0.0
2020-Jun-29 23:00N 54°37' W 005°54'0 0.0
2020-Jun-29 22:30N 54°37' W 005°54'0 0.0
2020-Jun-29 21:30N 54°37' W 005°54'0 0.0
2020-Jun-29 16:30N 54°37' W 005°54'0 0.0
2020-Jun-29 16:00N 54°37' W 005°54'0 0.0
2020-Jun-29 14:00N 54°37' W 005°54'0 0.0
2020-Jun-29 13:30N 54°37' W 005°54'0 0.0
2020-Jun-29 06:57N 54°37' W 005°54'0 0.0
2020-Jun-29 05:18N 54°37' W 005°54'0 0.0
2020-Jun-29 04:24N 54°37' W 005°54'0 0.0
2020-Jun-29 00:30N 54°37' W 005°54'0 0.0
2020-Jun-28 23:30N 54°37' W 005°54'0 0.0
2020-Jun-28 22:30N 54°37' W 005°54'0 0.0
2020-Jun-28 22:00N 54°37' W 005°54'0 0.0
2020-Jun-28 21:27N 54°37' W 005°54'0 0.0
2020-Jun-28 18:30N 54°37' W 005°54'0 0.0
2020-Jun-28 14:30N 54°37' W 005°54'0 0.0
2020-Jun-28 13:30N 54°37' W 005°54'0 0.0
2020-Jun-28 12:00N 54°37' W 005°54'0 0.0
2020-Jun-28 07:30N 54°37' W 005°54'0 0.0
2020-Jun-28 05:00N 54°37' W 005°54'0 0.0
2020-Jun-28 02:30N 54°37' W 005°54'0 0.0
2020-Jun-28 01:30N 54°37' W 005°54'0 0.0
2020-Jun-27 23:00N 54°37' W 005°54'0 0.0
2020-Jun-27 22:30N 54°37' W 005°54'0 0.0
2020-Jun-27 19:30N 54°37' W 005°54'0 0.0
2020-Jun-27 19:00N 54°37' W 005°54'0 0.0
2020-Jun-27 16:30N 54°37' W 005°54'0 0.0
2020-Jun-27 14:00N 54°37' W 005°54'0 0.0
2020-Jun-27 13:30N 54°37' W 005°54'0 0.0
2020-Jun-27 09:30N 54°37' W 005°54'0 0.0
2020-Jun-27 08:00N 54°37' W 005°54'0 0.0
2020-Jun-27 07:30N 54°37' W 005°54'0 0.0
2020-Jun-27 06:00N 54°37' W 005°54'0 0.0
2020-Jun-27 02:30N 54°37' W 005°54'0 0.0
2020-Jun-27 02:00N 54°37' W 005°54'0 0.0
2020-Jun-27 01:00N 54°37' W 005°54'0 0.0
2020-Jun-26 23:00N 54°37' W 005°54'0 0.0
2020-Jun-26 20:51N 54°37' W 005°54'0 0.0
2020-Jun-26 20:30N 54°37' W 005°54'0 0.0
2020-Jun-26 18:57N 54°37' W 005°54'0 0.0
2020-Jun-26 17:27N 54°37' W 005°54'0 0.0
2020-Jun-26 16:00N 54°37' W 005°54'1 0.4
2020-Jun-26 14:00N 54°38' W 005°53'0 0.0
2020-Jun-26 13:00N 54°38' W 005°53'0 0.0
2020-Jun-26 12:30N 54°38' W 005°53'0 0.0
2020-Jun-26 12:00N 54°38' W 005°53'0 0.0
2020-Jun-26 11:30N 54°38' W 005°53'0 0.0
2020-Jun-26 11:00N 54°38' W 005°53'0 0.0
2020-Jun-26 08:00N 54°38' W 005°53'0 0.0
2020-Jun-26 07:30N 54°38' W 005°53'0 0.0
2020-Jun-26 07:00N 54°38' W 005°53'0 0.0
2020-Jun-26 05:57N 54°38' W 005°53'0 0.0
2020-Jun-26 05:30N 54°38' W 005°53'0 0.0
2020-Jun-26 02:30N 54°38' W 005°53'0 0.0
2020-Jun-26 00:30N 54°38' W 005°53'  
Track history (hours):
 
Tides and Currents Weather Stations Pressure Air Temp Water Temp Dewpoint Dewpoint Depression Visibility Wind Speed Wind Dir Waves Ship Positions

Viking Sun

Last reported at 2020-Jul-05 21:58 UTC. Time now 2020-Jul-05 23:19 UTC.
Position N 53°25' W 003°00'.

Length 228 m; draft 7 m.

Type: Passenger vessel. MMSI: 257179000.

Date/timePositionNaut miles runAvg speedWind from/ knotsBaromVisibWave heightAir tempDewpointWater temp
2020-Jul-05 21:58N 53°25' W 003°00'0 0.0
2020-Jul-05 19:58N 53°25' W 003°00'0 0.0
2020-Jul-05 15:58N 53°25' W 003°00'0 0.0
2020-Jul-05 15:28N 53°25' W 003°00'0 0.0
2020-Jul-05 12:28N 53°25' W 003°00'0 0.0
2020-Jul-05 10:28N 53°25' W 003°00'0 0.0
2020-Jul-05 05:28N 53°25' W 003°00'0 0.0
2020-Jul-05 03:58N 53°25' W 003°00'0 0.0
2020-Jul-05 02:58N 53°25' W 003°00'0 0.0
2020-Jul-05 01:58N 53°25' W 003°00'0 0.0
2020-Jul-04 22:28N 53°25' W 003°00'1 0.2
2020-Jul-04 20:01N 53°25' W 003°01'816.6
2020-Jul-04 19:30N 53°32' W 003°09'1817.7
2020-Jul-04 18:30N 53°31' W 003°38'10116.8
2020-Jul-04 12:30N 54°44' W 005°37'4 3.4
2020-Jul-04 11:25N 54°41' W 005°42'0 0.0
2020-Jul-04 02:59N 54°41' W 005°42'0 0.0
2020-Jul-04 01:55N 54°41' W 005°42'0 0.0
2020-Jul-03 21:29N 54°41' W 005°42'0 0.0
2020-Jul-03 20:59N 54°41' W 005°42'0 0.0
2020-Jul-03 17:59N 54°41' W 005°42'0 0.0
2020-Jul-03 16:29N 54°41' W 005°42'0 0.2
2020-Jul-03 15:59N 54°41' W 005°42'0 0.0
2020-Jul-03 15:28N 54°41' W 005°42'0 0.1
2020-Jul-03 14:29N 54°41' W 005°42'0 0.1
2020-Jul-03 13:59N 54°41' W 005°42'0 0.0
2020-Jul-03 13:29N 54°41' W 005°42'0 0.0
2020-Jul-03 10:26N 54°41' W 005°42'0 0.1
2020-Jul-03 09:59N 54°41' W 005°42'0 0.0
2020-Jul-03 09:29N 54°41' W 005°42'0 0.0
2020-Jul-03 08:58N 54°41' W 005°42'0 0.0
2020-Jul-03 08:29N 54°41' W 005°42'0 0.2
2020-Jul-03 06:30N 54°41' W 005°41'0 0.0
2020-Jul-03 03:57N 54°41' W 005°41'0 0.0
2020-Jul-03 03:00N 54°41' W 005°41'0 0.0
2020-Jul-03 02:30N 54°41' W 005°41'0 0.0
2020-Jul-02 20:27N 54°41' W 005°41'0 0.0
2020-Jul-02 19:30N 54°41' W 005°41'0 0.0
2020-Jul-02 18:30N 54°41' W 005°41'0 0.0
2020-Jul-02 16:00N 54°41' W 005°41'1 0.9
2020-Jul-02 14:30N 54°42' W 005°41'24 7.8
2020-Jul-02 11:30N 54°27' W 005°09'5 9.2
2020-Jul-02 10:55N 54°22' W 005°09'4 8.8
2020-Jul-02 10:30N 54°18' W 005°08'9 8.6
2020-Jul-02 09:30N 54°10' W 005°09'6 9.1
2020-Jul-02 08:53N 54°05' W 005°13'46 7.3
2020-Jul-02 02:30N 53°49' W 003°58'9 8.6
2020-Jul-02 01:30N 53°41' W 003°58'53 5.4
2020-Jul-01 15:41N 54°02' W 005°21'21 9.6
2020-Jul-01 13:29N 54°22' W 005°10'29 3.6
2020-Jul-01 05:18N 54°37' W 005°54'0 0.0
2020-Jul-01 04:00N 54°37' W 005°54'0 0.0
2020-Jul-01 02:30N 54°37' W 005°54'0 0.0
2020-Jul-01 00:00N 54°37' W 005°54'0 0.0
2020-Jun-30 21:30N 54°37' W 005°54'0 0.0
2020-Jun-30 18:30N 54°37' W 005°54'0 0.0
2020-Jun-30 18:00N 54°37' W 005°54'0 0.0
2020-Jun-30 17:30N 54°37' W 005°54'0 0.0
2020-Jun-30 16:30N 54°37' W 005°54'0 0.0
2020-Jun-30 15:30N 54°37' W 005°54'0 0.0
2020-Jun-30 14:30N 54°37' W 005°54'0 0.0
2020-Jun-30 13:30N 54°37' W 005°54'0 0.0
2020-Jun-30 12:00N 54°37' W 005°54'0 0.0
2020-Jun-30 07:30N 54°37' W 005°54'0 0.0
2020-Jun-30 06:30N 54°37' W 005°54'0 0.0
2020-Jun-30 03:30N 54°37' W 005°54'0 0.0
2020-Jun-30 02:30N 54°37' W 005°54'0 0.0
2020-Jun-30 00:30N 54°37' W 005°54'0 0.0
2020-Jun-29 23:00N 54°37' W 005°54'0 0.0
2020-Jun-29 22:30N 54°37' W 005°54'0 0.0
2020-Jun-29 21:30N 54°37' W 005°54'0 0.0
2020-Jun-29 16:30N 54°37' W 005°54'0 0.0
2020-Jun-29 16:00N 54°37' W 005°54'0 0.0
2020-Jun-29 14:00N 54°37' W 005°54'0 0.0
2020-Jun-29 13:30N 54°37' W 005°54'0 0.0
2020-Jun-29 06:57N 54°37' W 005°54'0 0.0
2020-Jun-29 05:18N 54°37' W 005°54'0 0.0
2020-Jun-29 04:24N 54°37' W 005°54'0 0.0
2020-Jun-29 00:30N 54°37' W 005°54'0 0.0
2020-Jun-28 23:30N 54°37' W 005°54'0 0.0
2020-Jun-28 22:30N 54°37' W 005°54'0 0.0
2020-Jun-28 22:00N 54°37' W 005°54'0 0.0
2020-Jun-28 21:27N 54°37' W 005°54'0 0.0
2020-Jun-28 18:30N 54°37' W 005°54'0 0.0
2020-Jun-28 14:30N 54°37' W 005°54'0 0.0
2020-Jun-28 13:30N 54°37' W 005°54'0 0.0
2020-Jun-28 12:00N 54°37' W 005°54'0 0.0
2020-Jun-28 07:30N 54°37' W 005°54'0 0.0
2020-Jun-28 05:00N 54°37' W 005°54'0 0.0
2020-Jun-28 02:30N 54°37' W 005°54'0 0.0
2020-Jun-28 01:30N 54°37' W 005°54'0 0.0
2020-Jun-27 23:00N 54°37' W 005°54'0 0.0
2020-Jun-27 22:30N 54°37' W 005°54'0 0.0
2020-Jun-27 19:30N 54°37' W 005°54'0 0.0
2020-Jun-27 19:00N 54°37' W 005°54'0 0.0
2020-Jun-27 16:30N 54°37' W 005°54'0 0.0
2020-Jun-27 14:00N 54°37' W 005°54'0 0.0
2020-Jun-27 13:30N 54°37' W 005°54'0 0.0
2020-Jun-27 09:30N 54°37' W 005°54'0 0.0
2020-Jun-27 08:00N 54°37' W 005°54'0 0.0
2020-Jun-27 07:30N 54°37' W 005°54'0 0.0
2020-Jun-27 06:00N 54°37' W 005°54'0 0.0
2020-Jun-27 02:30N 54°37' W 005°54'0 0.0
2020-Jun-27 02:00N 54°37' W 005°54'0 0.0
2020-Jun-27 01:00N 54°37' W 005°54'0 0.0
2020-Jun-26 23:00N 54°37' W 005°54'0 0.0
2020-Jun-26 20:51N 54°37' W 005°54'0 0.0
2020-Jun-26 20:30N 54°37' W 005°54'0 0.0
2020-Jun-26 18:57N 54°37' W 005°54'0 0.0
2020-Jun-26 17:27N 54°37' W 005°54'0 0.0
2020-Jun-26 16:00N 54°37' W 005°54'1 0.4
2020-Jun-26 14:00N 54°38' W 005°53'0 0.0
2020-Jun-26 13:00N 54°38' W 005°53'0 0.0
2020-Jun-26 12:30N 54°38' W 005°53'0 0.0
2020-Jun-26 12:00N 54°38' W 005°53'0 0.0
2020-Jun-26 11:30N 54°38' W 005°53'0 0.0
2020-Jun-26 11:00N 54°38' W 005°53'0 0.0
2020-Jun-26 08:00N 54°38' W 005°53'0 0.0
2020-Jun-26 07:30N 54°38' W 005°53'0 0.0
2020-Jun-26 07:00N 54°38' W 005°53'0 0.0
2020-Jun-26 05:57N 54°38' W 005°53'0 0.0
2020-Jun-26 05:30N 54°38' W 005°53'0 0.0
2020-Jun-26 02:30N 54°38' W 005°53'0 0.0
2020-Jun-26 00:30N 54°38' W 005°53'  

Dump ship's entire track history